createdAt,value
2018-07-12T00:01:10.634Z,14.00
2018-07-12T00:03:38.776Z,14.10
2018-07-12T00:06:06.909Z,14.10
2018-07-12T00:08:35.037Z,14.10
2018-07-12T00:13:31.479Z,14.50
2018-07-12T00:15:59.595Z,14.40
2018-07-12T00:18:27.708Z,14.40
2018-07-12T00:20:55.799Z,14.40
2018-07-12T00:23:23.935Z,14.50
2018-07-12T00:25:52.035Z,14.30
2018-07-12T00:28:20.182Z,14.50
2018-07-12T00:30:48.407Z,14.50
2018-07-12T00:33:16.547Z,14.30
2018-07-12T00:35:44.643Z,14.10
2018-07-12T00:38:12.735Z,14.10
2018-07-12T00:40:40.876Z,14.10
2018-07-12T00:43:08.951Z,14.20
2018-07-12T00:45:37.088Z,14.20
2018-07-12T00:48:05.232Z,14.20
2018-07-12T00:50:33.395Z,14.30
2018-07-12T00:53:01.519Z,14.30
2018-07-12T00:55:29.630Z,14.50
2018-07-12T00:57:57.728Z,14.40
2018-07-12T01:00:25.856Z,14.30
2018-07-12T01:02:53.961Z,14.30
2018-07-12T01:05:25.057Z,14.20
2018-07-12T01:07:53.156Z,14.20
2018-07-12T01:12:49.664Z,14.30
2018-07-12T01:15:17.804Z,14.20
2018-07-12T01:17:45.925Z,14.10
2018-07-12T01:20:14.067Z,14.30
2018-07-12T01:22:42.220Z,14.40
2018-07-12T01:27:38.699Z,14.50
2018-07-12T01:30:06.787Z,14.40
2018-07-12T01:32:34.930Z,14.40
2018-07-12T01:35:02.999Z,14.50
2018-07-12T01:37:31.130Z,14.40
2018-07-12T01:39:59.217Z,14.50
2018-07-12T01:42:27.481Z,14.40
2018-07-12T01:44:55.576Z,14.40
2018-07-12T01:47:23.688Z,14.50
2018-07-12T01:49:51.787Z,14.40
2018-07-12T01:54:48.196Z,14.30
2018-07-12T01:57:16.359Z,14.40
2018-07-12T01:59:44.468Z,14.20
2018-07-12T02:02:12.600Z,14.20
2018-07-12T02:04:40.726Z,14.20
2018-07-12T02:07:08.867Z,14.10
2018-07-12T02:09:36.972Z,14.30
2018-07-12T02:12:06.113Z,14.20
2018-07-12T02:14:34.203Z,14.40
2018-07-12T02:17:02.453Z,14.40
2018-07-12T02:19:30.498Z,14.40
2018-07-12T02:21:58.591Z,14.40
2018-07-12T02:24:26.716Z,14.30
2018-07-12T02:26:54.810Z,14.30
2018-07-12T02:29:22.956Z,14.30
2018-07-12T02:31:51.077Z,14.30
2018-07-12T02:34:19.196Z,14.40
2018-07-12T02:36:47.303Z,14.30
2018-07-12T02:39:15.449Z,14.30
2018-07-12T02:41:44.542Z,14.40
2018-07-12T02:44:12.775Z,14.30
2018-07-12T02:46:40.864Z,14.30
2018-07-12T02:49:08.977Z,14.40
2018-07-12T02:51:37.133Z,14.40
2018-07-12T02:56:33.499Z,14.40
2018-07-12T02:59:01.712Z,14.40
2018-07-12T03:01:29.832Z,14.40
2018-07-12T03:03:57.991Z,14.30
2018-07-12T03:06:26.187Z,14.30
2018-07-12T03:08:54.321Z,14.30
2018-07-12T03:11:22.434Z,14.30
2018-07-12T03:13:50.563Z,14.30
2018-07-12T03:16:18.700Z,14.40
2018-07-12T03:18:46.784Z,14.40
2018-07-12T03:21:14.930Z,14.30
2018-07-12T03:23:43.495Z,14.40
2018-07-12T03:26:12.022Z,14.50
2018-07-12T03:28:40.436Z,14.50
2018-07-12T03:31:08.558Z,14.50
2018-07-12T03:33:36.679Z,14.70
2018-07-12T03:36:04.799Z,14.80
2018-07-12T03:38:32.882Z,15.00
2018-07-12T03:41:01.045Z,14.80
2018-07-12T03:43:29.130Z,14.70
2018-07-12T03:45:57.297Z,14.60
2018-07-12T03:48:25.387Z,14.50
2018-07-12T03:50:53.532Z,14.50
2018-07-12T03:53:21.648Z,14.50
2018-07-12T03:55:49.773Z,14.50
2018-07-12T03:58:17.895Z,14.50
2018-07-12T04:00:46.034Z,14.40
2018-07-12T04:03:14.209Z,14.30
2018-07-12T04:05:42.295Z,14.40
2018-07-12T04:08:10.535Z,14.30
2018-07-12T04:10:38.646Z,14.30
2018-07-12T04:13:06.790Z,14.30
2018-07-12T04:15:34.925Z,14.40
2018-07-12T04:18:03.028Z,14.40
2018-07-12T04:20:31.165Z,14.40
2018-07-12T04:22:59.310Z,14.50
2018-07-12T04:25:27.436Z,14.50
2018-07-12T04:27:55.580Z,14.50
2018-07-12T04:30:23.691Z,14.60
2018-07-12T04:32:51.807Z,14.80
2018-07-12T04:35:19.947Z,15.00
2018-07-12T04:37:48.125Z,15.10
2018-07-12T04:40:16.243Z,15.10
2018-07-12T04:42:49.093Z,15.30
2018-07-12T04:45:17.209Z,15.10
2018-07-12T04:50:13.606Z,15.20
2018-07-12T04:52:42.549Z,15.10
2018-07-12T04:55:10.677Z,15.20
2018-07-12T04:57:38.798Z,15.20
2018-07-12T05:00:07.429Z,15.30
2018-07-12T05:02:35.535Z,15.20
2018-07-12T05:05:03.656Z,15.20
2018-07-12T05:07:31.773Z,15.30
2018-07-12T05:09:59.892Z,15.40
2018-07-12T05:12:28.075Z,15.30
2018-07-12T05:14:56.232Z,15.20
2018-07-12T05:17:24.325Z,15.30
2018-07-12T05:19:52.487Z,15.30
2018-07-12T05:22:20.735Z,15.20
2018-07-12T05:24:48.883Z,15.40
2018-07-12T05:29:45.324Z,15.50
2018-07-12T05:32:13.445Z,15.50
2018-07-12T05:34:41.607Z,15.40
2018-07-12T05:37:10.988Z,15.30
2018-07-12T05:39:40.416Z,15.40
2018-07-12T05:42:09.800Z,15.60
2018-07-12T05:44:39.175Z,15.40
2018-07-12T05:47:08.552Z,15.60
2018-07-12T05:49:37.969Z,15.70
2018-07-12T05:52:07.346Z,15.70
2018-07-12T05:54:37.400Z,15.70
2018-07-12T05:57:06.763Z,15.70
2018-07-12T05:59:36.176Z,15.70
2018-07-12T06:02:15.373Z,15.80
2018-07-12T06:07:13.804Z,15.60
2018-07-12T06:09:43.187Z,15.80
2018-07-12T06:12:12.552Z,15.80
2018-07-12T06:14:41.905Z,15.80
2018-07-12T06:17:11.328Z,15.90
2018-07-12T06:19:40.723Z,15.90
2018-07-12T06:22:10.168Z,15.90
2018-07-12T06:24:39.584Z,15.90
2018-07-12T06:27:09.011Z,15.90
2018-07-12T06:29:38.944Z,15.90
2018-07-12T06:32:08.369Z,15.80
2018-07-12T06:34:37.684Z,16.10
2018-07-12T06:37:07.114Z,16.30
2018-07-12T06:39:36.464Z,16.30
2018-07-12T06:42:05.902Z,16.30
2018-07-12T06:44:35.231Z,16.30
2018-07-12T06:47:04.636Z,16.20
2018-07-12T06:49:33.971Z,16.10
2018-07-12T06:52:03.350Z,16.10
2018-07-12T06:54:32.715Z,16.20
2018-07-12T06:57:02.112Z,16.40
2018-07-12T06:59:31.471Z,16.20
2018-07-12T07:02:00.817Z,16.10
2018-07-12T07:04:30.172Z,16.40
2018-07-12T07:06:59.615Z,16.50
2018-07-12T07:09:28.979Z,16.70
2018-07-12T07:11:58.363Z,16.90
2018-07-12T07:14:27.747Z,17.10
2018-07-12T07:16:57.136Z,17.40
2018-07-12T07:19:26.524Z,17.80
2018-07-12T07:21:55.922Z,18.50
2018-07-12T07:24:25.322Z,18.90
2018-07-12T07:26:54.693Z,18.90
2018-07-12T07:29:24.095Z,18.60
2018-07-12T07:31:53.484Z,18.70
2018-07-12T07:34:23.349Z,19.20
2018-07-12T07:36:52.716Z,19.70
2018-07-12T07:39:22.082Z,19.90
2018-07-12T07:41:51.499Z,19.70
2018-07-12T07:44:20.907Z,19.60
2018-07-12T07:46:50.264Z,19.60
2018-07-12T07:49:19.695Z,19.50
2018-07-12T07:51:49.011Z,19.50
2018-07-12T07:54:18.609Z,19.40
2018-07-12T07:56:48.026Z,19.30
2018-07-12T07:59:17.406Z,19.50
2018-07-12T08:04:16.844Z,19.80
2018-07-12T08:06:46.273Z,19.40
2018-07-12T08:09:15.599Z,19.20
2018-07-12T08:11:44.976Z,19.40
2018-07-12T08:14:14.335Z,19.80
2018-07-12T08:19:12.601Z,20.70
2018-07-12T08:21:42.009Z,20.90
2018-07-12T08:24:11.360Z,21.70
2018-07-12T08:26:40.753Z,22.40
2018-07-12T08:29:10.117Z,22.90
2018-07-12T08:31:39.518Z,23.20
2018-07-12T08:34:08.904Z,22.80
2018-07-12T08:36:38.296Z,22.40
2018-07-12T08:39:07.696Z,21.90
2018-07-12T08:41:37.060Z,21.20
2018-07-12T08:44:06.383Z,20.30
2018-07-12T08:46:35.781Z,19.90
2018-07-12T08:49:05.152Z,19.90
2018-07-12T08:51:34.544Z,19.90
2018-07-12T08:54:03.898Z,19.70
2018-07-12T08:56:33.281Z,19.80
2018-07-12T08:59:02.614Z,20.30
2018-07-12T09:01:32.046Z,20.50
2018-07-12T09:04:01.412Z,20.50
2018-07-12T09:06:30.831Z,20.90
2018-07-12T09:09:00.187Z,21.40
2018-07-12T09:11:29.544Z,22.10
2018-07-12T09:13:58.988Z,21.60
2018-07-12T09:16:28.324Z,21.40
2018-07-12T09:18:57.808Z,21.90
2018-07-12T09:21:27.155Z,22.90
2018-07-12T09:23:56.545Z,23.00
2018-07-12T09:26:25.896Z,23.30
2018-07-12T09:28:55.342Z,23.60
2018-07-12T09:31:24.643Z,24.20
2018-07-12T09:33:54.035Z,23.90
2018-07-12T09:36:23.435Z,22.50
2018-07-12T09:38:53.215Z,22.60
2018-07-12T09:41:23.705Z,22.40
2018-07-12T09:43:53.302Z,23.10
2018-07-12T09:46:22.661Z,23.40
2018-07-12T09:48:52.960Z,24.40
2018-07-12T09:51:22.355Z,24.80
2018-07-12T09:53:51.730Z,24.50
2018-07-12T09:56:21.187Z,23.70
2018-07-12T09:58:50.601Z,23.10
2018-07-12T10:01:25.217Z,23.30
2018-07-12T10:03:54.903Z,23.70
2018-07-12T10:06:30.507Z,24.30
2018-07-12T10:09:05.052Z,24.70
2018-07-12T10:11:39.546Z,25.70
2018-07-12T10:16:45.389Z,25.50
2018-07-12T10:19:14.754Z,25.50
2018-07-12T10:21:44.135Z,25.30
2018-07-12T10:24:13.520Z,24.90
2018-07-12T10:26:42.846Z,24.30
2018-07-12T10:29:12.188Z,23.80
2018-07-12T10:31:41.579Z,23.70
2018-07-12T10:34:10.920Z,24.80
2018-07-12T10:36:40.320Z,25.30
2018-07-12T10:39:10.885Z,25.60
2018-07-12T10:41:40.440Z,25.80
2018-07-12T10:44:09.820Z,24.90
2018-07-12T10:46:39.335Z,25.10
2018-07-12T10:49:08.671Z,25.60
2018-07-12T10:51:38.115Z,25.20
2018-07-12T10:54:07.497Z,25.50
2018-07-12T10:56:36.876Z,25.00
2018-07-12T10:59:06.468Z,24.60
2018-07-12T11:01:35.861Z,24.20
2018-07-12T11:04:05.268Z,24.80
2018-07-12T11:06:34.691Z,25.80
2018-07-12T11:09:04.774Z,26.20
2018-07-12T11:11:34.157Z,25.60
2018-07-12T11:14:04.072Z,25.60
2018-07-12T11:16:33.459Z,26.70
2018-07-12T11:19:02.788Z,26.60
2018-07-12T11:21:32.164Z,26.80
2018-07-12T11:24:01.531Z,26.60
2018-07-12T11:26:30.940Z,27.50
2018-07-12T11:29:00.260Z,27.80
2018-07-12T11:31:29.613Z,27.10
2018-07-12T11:33:59.004Z,26.70
2018-07-12T11:36:28.429Z,26.70
2018-07-12T11:38:57.795Z,26.20
2018-07-12T11:41:27.157Z,26.50
2018-07-12T11:43:56.559Z,27.30
2018-07-12T11:46:25.891Z,27.60
2018-07-12T11:48:55.300Z,28.00
2018-07-12T11:51:24.663Z,27.80
2018-07-12T11:56:22.922Z,26.50
2018-07-12T11:58:52.330Z,26.90
2018-07-12T12:01:21.757Z,27.30
2018-07-12T12:03:51.144Z,27.90
2018-07-12T12:06:20.575Z,27.50
2018-07-12T12:08:50.456Z,27.90
2018-07-12T12:11:19.833Z,29.00
2018-07-12T12:13:49.821Z,28.60
2018-07-12T12:16:19.164Z,28.70
2018-07-12T12:18:48.500Z,28.40
2018-07-12T12:21:17.853Z,28.50
2018-07-12T12:23:47.195Z,27.30
2018-07-12T12:26:16.541Z,26.80
2018-07-12T12:28:45.881Z,27.00
2018-07-12T12:31:15.246Z,27.20
2018-07-12T12:33:44.573Z,28.00
2018-07-12T12:36:14.091Z,28.30
2018-07-12T12:38:43.447Z,28.40
2018-07-12T12:41:12.855Z,28.70
2018-07-12T12:43:42.289Z,28.60
2018-07-12T12:46:11.647Z,28.90
2018-07-12T12:48:40.992Z,28.70
2018-07-12T12:51:10.391Z,28.90
2018-07-12T12:53:39.691Z,29.10
2018-07-12T12:56:09.063Z,29.40
2018-07-12T12:58:38.404Z,29.10
2018-07-12T13:01:07.888Z,29.00
2018-07-12T13:03:37.201Z,28.90
2018-07-12T13:06:07.172Z,29.10
2018-07-12T13:08:36.499Z,28.70
2018-07-12T13:11:05.919Z,28.40
2018-07-12T13:13:35.296Z,28.70
2018-07-12T13:16:04.637Z,28.80
2018-07-12T13:18:34.013Z,28.80
2018-07-12T13:21:03.403Z,28.90
2018-07-12T13:23:32.765Z,28.00
2018-07-12T13:26:02.128Z,27.50
2018-07-12T13:28:31.516Z,27.80
2018-07-12T13:31:00.859Z,28.20
2018-07-12T13:33:30.268Z,28.50
2018-07-12T13:35:59.634Z,28.70
2018-07-12T13:38:29.008Z,28.20
2018-07-12T13:40:58.392Z,27.40
2018-07-12T13:43:27.774Z,27.00
2018-07-12T13:45:57.099Z,26.80
2018-07-12T13:48:26.478Z,26.40
2018-07-12T13:50:55.820Z,26.20
2018-07-12T13:53:25.209Z,26.10
2018-07-12T13:58:23.464Z,26.30
2018-07-12T14:00:52.868Z,26.70
2018-07-12T14:03:22.273Z,26.80
2018-07-12T14:05:51.673Z,26.50
2018-07-12T14:08:21.189Z,26.50
2018-07-12T14:10:50.532Z,26.30
2018-07-12T14:13:19.844Z,26.50
2018-07-12T14:15:49.202Z,26.80
2018-07-12T14:18:18.518Z,26.60
2018-07-12T14:20:47.892Z,26.50
2018-07-12T14:25:46.179Z,26.30
2018-07-12T14:28:15.542Z,26.60
2018-07-12T14:30:45.000Z,26.40
2018-07-12T14:33:14.352Z,26.40
2018-07-12T14:35:43.759Z,26.10
2018-07-12T14:38:13.176Z,25.80
2018-07-12T14:40:42.544Z,25.40
2018-07-12T14:43:11.943Z,25.50
2018-07-12T14:45:41.319Z,25.50
2018-07-12T14:48:10.629Z,25.30
2018-07-12T14:50:39.995Z,25.30
2018-07-12T14:53:09.326Z,25.30
2018-07-12T14:55:38.776Z,25.40
2018-07-12T14:58:08.458Z,25.40
2018-07-12T15:00:37.972Z,25.40
2018-07-12T15:03:07.297Z,25.40
2018-07-12T15:05:36.708Z,25.00
2018-07-12T15:08:06.156Z,25.10
2018-07-12T15:10:35.608Z,25.20
2018-07-12T15:13:04.951Z,25.20
2018-07-12T15:15:34.368Z,25.30
2018-07-12T15:18:03.716Z,25.40
2018-07-12T15:20:33.104Z,25.40
2018-07-12T15:23:02.454Z,25.40
2018-07-12T15:25:31.904Z,25.20
2018-07-12T15:28:01.324Z,25.20
2018-07-12T15:30:30.611Z,25.10
2018-07-12T15:32:59.995Z,25.20
2018-07-12T15:37:58.264Z,25.10
2018-07-12T15:40:27.643Z,25.10
2018-07-12T15:45:26.315Z,25.00
2018-07-12T15:47:55.708Z,25.00
2018-07-12T15:50:26.518Z,24.90
2018-07-12T15:52:56.256Z,25.00
2018-07-12T15:55:25.612Z,24.90
2018-07-12T15:57:55.012Z,24.80
2018-07-12T16:00:24.352Z,24.70
2018-07-12T16:02:53.748Z,24.80
2018-07-12T16:05:23.119Z,24.60
2018-07-12T16:07:52.518Z,24.50
2018-07-12T16:10:21.865Z,24.60
2018-07-12T16:12:51.231Z,24.30
2018-07-12T16:15:20.578Z,24.30
2018-07-12T16:17:49.956Z,24.30
2018-07-12T16:20:19.316Z,24.30
2018-07-12T16:22:48.680Z,24.30
2018-07-12T16:25:18.063Z,24.20
2018-07-12T16:27:47.520Z,24.20
2018-07-12T16:30:16.896Z,24.10
2018-07-12T16:32:46.255Z,24.00
2018-07-12T16:35:15.640Z,23.90
2018-07-12T16:37:45.019Z,24.00
2018-07-12T16:40:15.283Z,23.90
2018-07-12T16:42:45.548Z,24.00
2018-07-12T16:45:15.868Z,24.10
2018-07-12T16:47:45.236Z,23.80
2018-07-12T16:50:14.619Z,23.60
2018-07-12T16:52:44.001Z,23.60
2018-07-12T16:55:13.704Z,23.60
2018-07-12T16:57:43.056Z,23.70
2018-07-12T17:00:12.462Z,23.80
2018-07-12T17:02:41.820Z,23.80
2018-07-12T17:05:11.236Z,23.80
2018-07-12T17:07:41.074Z,23.70
2018-07-12T17:10:10.391Z,23.70
2018-07-12T17:15:08.697Z,23.10
2018-07-12T17:17:38.052Z,23.00
2018-07-12T17:20:07.403Z,22.80
2018-07-12T17:22:36.744Z,22.90
2018-07-12T17:25:06.072Z,22.90
2018-07-12T17:27:35.425Z,22.90
2018-07-12T17:30:04.875Z,23.00
2018-07-12T17:32:34.230Z,23.20
2018-07-12T17:35:03.558Z,23.30
2018-07-12T17:37:32.978Z,23.30
2018-07-12T17:40:02.287Z,23.10
2018-07-12T17:45:00.619Z,23.40
2018-07-12T17:47:30.115Z,23.40
2018-07-12T17:49:59.380Z,23.30
2018-07-12T17:52:28.761Z,23.40
2018-07-12T17:54:58.091Z,23.40
2018-07-12T17:57:27.437Z,23.40
2018-07-12T17:59:56.787Z,23.40
2018-07-12T18:02:26.568Z,23.30
2018-07-12T18:04:55.936Z,23.10
2018-07-12T18:07:25.325Z,23.10
2018-07-12T18:09:54.658Z,23.10
2018-07-12T18:12:24.531Z,22.80
2018-07-12T18:14:54.244Z,22.60
2018-07-12T18:17:23.663Z,22.30
2018-07-12T18:22:21.983Z,22.10
2018-07-12T18:24:51.344Z,22.00
2018-07-12T18:27:20.680Z,21.90
2018-07-12T18:29:50.056Z,21.90
2018-07-12T18:32:19.447Z,21.90
2018-07-12T18:37:18.188Z,21.70
2018-07-12T18:39:47.603Z,21.70
2018-07-12T18:42:17.059Z,21.70
2018-07-12T18:44:46.408Z,21.60
2018-07-12T18:47:15.746Z,21.40
2018-07-12T18:49:45.107Z,21.40
2018-07-12T18:52:14.487Z,21.20
2018-07-12T18:54:43.895Z,21.10
2018-07-12T18:57:13.376Z,21.00
2018-07-12T18:59:42.729Z,21.00
2018-07-12T19:02:12.063Z,21.00
2018-07-12T19:04:41.745Z,20.80
2018-07-12T19:07:11.247Z,20.70
2018-07-12T19:09:40.637Z,20.70
2018-07-12T19:12:09.987Z,20.60
2018-07-12T19:17:08.168Z,20.60
2018-07-12T19:19:37.575Z,20.50
2018-07-12T19:22:07.000Z,20.50
2018-07-12T19:24:36.310Z,20.40
2018-07-12T19:27:05.705Z,20.30
2018-07-12T19:29:35.056Z,20.10
2018-07-12T19:32:04.484Z,20.00
2018-07-12T19:34:33.871Z,19.90
2018-07-12T19:37:03.256Z,19.80
2018-07-12T19:39:32.600Z,19.70
2018-07-12T19:42:01.980Z,19.60
2018-07-12T19:44:31.355Z,19.50
2018-07-12T19:47:01.189Z,19.30
2018-07-12T19:49:30.588Z,19.30
2018-07-12T19:52:00.020Z,19.30
2018-07-12T19:54:29.617Z,19.40
2018-07-12T19:56:59.388Z,19.20
2018-07-12T20:01:57.745Z,19.00
2018-07-12T20:04:27.148Z,19.00
2018-07-12T20:06:56.560Z,19.20
2018-07-12T20:09:25.896Z,19.20
2018-07-12T20:11:55.363Z,19.20
2018-07-12T20:14:24.720Z,19.20
2018-07-12T20:16:54.084Z,19.10
2018-07-12T20:19:23.449Z,19.20
2018-07-12T20:21:52.984Z,19.30
2018-07-12T20:24:22.355Z,19.50
2018-07-12T20:26:52.241Z,19.50
2018-07-12T20:29:21.651Z,19.50
2018-07-12T20:31:50.980Z,19.40
2018-07-12T20:34:20.357Z,19.40
2018-07-12T20:36:49.732Z,19.30
2018-07-12T20:39:19.118Z,19.40
2018-07-12T20:41:48.514Z,19.40
2018-07-12T20:44:17.896Z,19.30
2018-07-12T20:46:47.315Z,19.50
2018-07-12T20:49:16.674Z,19.60
2018-07-12T20:51:46.901Z,19.50
2018-07-12T20:54:16.343Z,19.60
2018-07-12T20:56:45.697Z,19.60
2018-07-12T20:59:15.065Z,19.50
2018-07-12T21:01:44.444Z,19.70
2018-07-12T21:04:13.947Z,19.80
2018-07-12T21:06:43.332Z,19.80
2018-07-12T21:09:12.731Z,19.80
2018-07-12T21:11:42.107Z,19.70
2018-07-12T21:14:11.563Z,19.70
2018-07-12T21:16:40.899Z,19.60
2018-07-12T21:19:10.309Z,19.60
2018-07-12T21:21:39.671Z,19.60
2018-07-12T21:24:09.030Z,19.50
2018-07-12T21:26:38.625Z,19.60
2018-07-12T21:29:07.962Z,19.50
2018-07-12T21:31:37.382Z,19.50
2018-07-12T21:34:06.740Z,19.50
2018-07-12T21:36:36.115Z,19.50
2018-07-12T21:39:08.024Z,19.50
2018-07-12T21:41:37.751Z,19.80
2018-07-12T21:44:07.164Z,19.70
2018-07-12T21:46:36.594Z,19.90
2018-07-12T21:49:05.936Z,20.00
2018-07-12T21:51:35.435Z,19.90
2018-07-12T21:56:33.631Z,19.80
2018-07-12T22:01:31.839Z,19.60
2018-07-12T22:04:01.196Z,19.60
2018-07-12T22:09:07.258Z,19.40
2018-07-12T22:11:36.623Z,19.30
2018-07-12T22:14:06.014Z,19.20
2018-07-12T22:16:35.399Z,19.10
2018-07-12T22:19:04.748Z,19.10
2018-07-12T22:21:34.281Z,19.00
2018-07-12T22:24:03.631Z,19.00
2018-07-12T22:26:32.975Z,18.90
2018-07-12T22:29:02.347Z,18.90
2018-07-12T22:31:31.687Z,18.80
2018-07-12T22:34:01.080Z,18.80
2018-07-12T22:36:30.428Z,18.80
2018-07-12T22:38:59.804Z,18.80
2018-07-12T22:41:29.169Z,18.90
2018-07-12T22:43:58.539Z,18.90
2018-07-12T22:46:28.355Z,19.00
2018-07-12T22:48:57.826Z,19.20
2018-07-12T22:51:27.127Z,19.00
2018-07-12T22:53:56.526Z,19.00
2018-07-12T22:56:25.908Z,18.80
2018-07-12T22:58:55.293Z,18.70
2018-07-12T23:03:54.535Z,18.70
2018-07-12T23:06:23.920Z,18.60
2018-07-12T23:08:53.302Z,18.60
2018-07-12T23:11:22.668Z,18.70
2018-07-12T23:13:52.038Z,18.60
2018-07-12T23:16:21.404Z,18.60
2018-07-12T23:18:50.764Z,18.60
2018-07-12T23:21:21.224Z,18.70
2018-07-12T23:23:50.616Z,18.70
2018-07-12T23:26:19.972Z,18.70
2018-07-12T23:28:49.346Z,18.60
2018-07-12T23:31:18.678Z,18.50
2018-07-12T23:33:48.043Z,18.60
2018-07-12T23:36:17.439Z,18.90
2018-07-12T23:41:16.258Z,19.10
2018-07-12T23:43:46.020Z,18.90
2018-07-12T23:46:15.409Z,18.80
2018-07-12T23:48:44.791Z,18.90
2018-07-12T23:51:15.336Z,18.80
2018-07-12T23:53:45.103Z,18.80
2018-07-12T23:56:14.496Z,18.80
2018-07-12T23:58:43.836Z,18.70
